Time;durP1;ratioP1;P1;durP2;ratioP2;P2;SDS_P1;SDS_P2;PMS_P1;PMS_P2;Temp;Humidity;BMP_temperature;BMP_pressure;BME280_temperature;BME280_humidity;BME280_pressure;Samples;Min_cycle;Max_cycle;Signal;HPM_P1;HPM_P2
2022/01/08 00:00:36;;;;;;;117.55;66.65;;;103.10;2227.20;;;;;;5033531;28;20026;-88
2022/01/08 00:03:01;;;;;;;112.68;67.43;;;103.10;2227.20;;;;;;5016642;28;20041;-86
2022/01/08 00:05:27;;;;;;;114.72;70.32;;;103.20;2227.20;;;;;;5033055;28;20022;-89
2022/01/08 00:07:54;;;;;;;125.93;73.18;;;103.20;2227.20;;;;;;5033427;28;20113;-87
2022/01/08 00:10:21;;;;;;;112.55;71.63;;;103.10;2227.20;;;;;;5036706;28;20025;-88
2022/01/08 00:12:50;;;;;;;119.97;73.28;;;103.00;2227.20;;;;;;5019845;28;20104;-89
2022/01/08 00:15:16;;;;;;;115.38;71.72;;;103.00;2227.20;;;;;;5036553;28;20060;-89
2022/01/08 00:17:42;;;;;;;126.47;78.03;;;103.00;2227.20;;;;;;5036354;28;20389;-89
2022/01/08 00:20:09;;;;;;;123.18;80.00;;;103.00;2227.20;;;;;;5036243;28;20051;-88
2022/01/08 00:22:34;;;;;;;125.20;79.03;;;102.90;2227.20;;;;;;5019823;28;20366;-89
2022/01/08 00:25:00;;;;;;;131.68;83.05;;;103.00;2227.20;;;;;;5036005;28;20045;-89
2022/01/08 00:27:26;;;;;;;135.13;84.90;;;103.00;2227.20;;;;;;5019542;28;20025;-89
2022/01/08 00:29:52;;;;;;;138.07;87.07;;;102.90;2227.20;;;;;;5036174;28;20021;-89
2022/01/08 00:32:18;;;;;;;132.75;79.40;;;102.90;2227.20;;;;;;5036090;28;20022;-88
2022/01/08 00:34:44;;;;;;;134.48;83.10;;;103.00;2227.20;;;;;;5035961;28;20075;-90
2022/01/08 00:37:10;;;;;;;133.45;85.10;;;102.90;2227.20;;;;;;5035957;28;20032;-90
2022/01/08 00:39:36;;;;;;;125.05;80.03;;;102.80;2227.20;;;;;;5019611;28;20021;-87
2022/01/08 00:42:03;;;;;;;131.85;83.63;;;102.90;2227.20;;;;;;5019659;28;20028;-88
2022/01/08 00:44:29;;;;;;;125.43;80.43;;;128.10;2252.80;;;;;;5019459;28;20030;-88
2022/01/08 00:46:55;;;;;;;132.48;87.32;;;102.80;2227.20;;;;;;5036066;28;20056;-88
2022/01/08 00:49:22;;;;;;;141.43;93.95;;;102.80;2227.20;;;;;;5036281;28;20099;-90
2022/01/08 00:51:48;;;;;;;174.90;112.82;;;102.80;2227.20;;;;;;5035988;28;20342;-88
2022/01/08 00:54:14;;;;;;;136.50;87.30;;;102.80;2227.20;;;;;;5035163;28;20018;-87
2022/01/08 00:56:40;;;;;;;140.25;90.38;;;102.80;2227.20;;;;;;5035719;28;20048;-88
2022/01/08 00:59:05;;;;;;;171.65;104.80;;;102.90;2227.20;;;;;;5035693;28;20475;-87
2022/01/08 01:01:31;;;;;;;137.13;83.90;;;102.80;2227.20;;;;;;5035235;28;20017;-89
2022/01/08 01:03:57;;;;;;;125.22;80.20;;;102.80;2227.20;;;;;;5035363;28;20499;-87
2022/01/08 01:06:23;;;;;;;87.38;55.25;;;102.90;2227.20;;;;;;5018940;28;20021;-90
2022/01/08 01:08:50;;;;;;;74.10;47.60;;;102.70;2227.20;;;;;;5018460;28;20041;-87
2022/01/08 01:11:16;;;;;;;57.40;39.10;;;102.60;2227.20;;;;;;5035586;28;20026;-89
2022/01/08 01:13:42;;;;;;;54.05;35.78;;;102.60;2227.20;;;;;;5018791;28;20080;-87
2022/01/08 01:16:08;;;;;;;54.58;35.45;;;102.90;2227.20;;;;;;5035432;28;20025;-89
2022/01/08 01:18:35;;;;;;;63.38;42.92;;;102.40;2227.20;;;;;;5035197;28;20026;-89
2022/01/08 01:21:02;;;;;;;71.55;47.83;;;102.50;2227.20;;;;;;5035012;28;20022;-89
2022/01/08 01:23:36;;;;;;;59.78;37.58;;;102.50;2227.20;;;;;;5034985;28;20030;-89
2022/01/08 01:26:05;;;;;;;59.10;38.03;;;77.70;2227.20;;;;;;5035733;28;20017;-90
2022/01/08 01:47:05;;;;;;;40.72;26.98;;;102.40;2227.20;;;;;;5036054;28;20113;-88
2022/01/08 01:49:37;;;;;;;50.10;31.17;;;77.60;2227.20;;;;;;5034400;28;20053;-88
2022/01/08 01:52:05;;;;;;;62.80;38.28;;;77.70;2227.20;;;;;;5018019;28;20021;-87
2022/01/08 01:54:32;;;;;;;50.92;31.48;;;77.70;2227.20;;;;;;5017849;28;20021;-89
2022/01/08 01:57:00;;;;;;;48.15;34.25;;;77.70;2227.20;;;;;;5017742;28;20025;-88
2022/01/08 01:59:28;;;;;;;47.75;32.55;;;77.70;2227.20;;;;;;5017566;28;20021;-88
2022/01/08 02:01:54;;;;;;;52.10;35.08;;;77.60;2227.20;;;;;;5017810;28;20028;-89
2022/01/08 02:04:20;;;;;;;58.20;37.00;;;77.70;2227.20;;;;;;5017087;28;20465;-89
2022/01/08 02:06:47;;;;;;;50.72;36.28;;;102.40;2227.20;;;;;;5017598;28;20028;-87
2022/01/08 02:09:13;;;;;;;70.93;45.42;;;102.50;2227.20;;;;;;5017697;28;20045;-90
2022/01/08 02:12:17;;;;;;;60.17;39.53;;;102.40;2227.20;;;;;;5017462;28;20021;-90
2022/01/08 02:14:45;;;;;;;48.83;32.45;;;77.70;2227.20;;;;;;4938866;29;20148;-90
2022/01/08 02:17:11;;;;;;;53.67;34.47;;;77.60;2227.20;;;;;;5003827;28;20036;-88
2022/01/08 02:19:38;;;;;;;52.45;35.58;;;77.70;2227.20;;;;;;5034344;28;20022;-89
2022/01/08 02:22:05;;;;;;;50.00;33.85;;;77.70;2227.20;;;;;;5033849;28;20028;-87
2022/01/08 02:24:32;;;;;;;52.80;34.22;;;77.60;2227.20;;;;;;5017399;28;20159;-89
2022/01/08 02:26:58;;;;;;;58.08;37.60;;;77.70;2227.20;;;;;;5017379;28;20017;-88
2022/01/08 02:29:25;;;;;;;51.88;36.63;;;102.40;2227.20;;;;;;5017434;28;20079;-90
2022/01/08 02:31:57;;;;;;;46.38;33.28;;;102.70;2227.20;;;;;;5017166;28;20028;-89
2022/01/08 02:34:26;;;;;;;51.17;34.50;;;102.40;2227.20;;;;;;5017286;28;20025;-90
2022/01/08 02:36:52;;;;;;;55.15;36.97;;;102.50;2227.20;;;;;;5017431;28;20472;-88
2022/01/08 02:39:18;;;;;;;53.97;36.25;;;102.40;2227.20;;;;;;5017408;28;20022;-87
2022/01/08 02:41:44;;;;;;;48.03;34.70;;;102.40;2227.20;;;;;;5033848;28;20036;-88
2022/01/08 02:44:11;;;;;;;58.25;37.35;;;77.60;2227.20;;;;;;5033707;28;20076;-90
2022/01/08 02:46:41;;;;;;;54.17;36.38;;;102.40;2227.20;;;;;;5017370;28;20028;-90
2022/01/08 02:49:07;;;;;;;54.28;35.85;;;102.40;2227.20;;;;;;5017390;28;20029;-90
2022/01/08 02:51:35;;;;;;;58.08;36.63;;;77.70;2227.20;;;;;;5034734;28;20071;-90
2022/01/08 02:54:02;;;;;;;55.00;36.47;;;102.50;2227.20;;;;;;5016907;28;20469;-88
2022/01/08 02:56:28;;;;;;;50.60;34.60;;;102.50;2227.20;;;;;;5035879;28;20014;-88
2022/01/08 02:58:54;;;;;;;53.50;35.28;;;102.50;2227.20;;;;;;5034081;28;20461;-88
2022/01/08 03:01:20;;;;;;;51.53;36.40;;;102.50;2227.20;;;;;;5022907;28;20089;-88
2022/01/08 03:03:46;;;;;;;55.97;36.75;;;102.50;2227.20;;;;;;5037548;28;20087;-90
2022/01/08 03:06:12;;;;;;;60.90;40.47;;;102.50;2227.20;;;;;;5033371;28;20025;-89
2022/01/08 03:08:38;;;;;;;58.63;40.03;;;102.50;2227.20;;;;;;5033247;28;20049;-89
2022/01/08 03:11:04;;;;;;;63.85;40.60;;;102.60;2227.20;;;;;;5033510;28;20022;-88
2022/01/08 03:13:30;;;;;;;68.65;42.25;;;102.50;2227.20;;;;;;5033390;28;20103;-88
2022/01/08 03:15:55;;;;;;;59.88;39.08;;;77.70;2227.20;;;;;;5034351;28;20457;-90
2022/01/08 03:18:21;;;;;;;54.28;37.28;;;77.70;2227.20;;;;;;5037461;28;20113;-87
2022/01/08 03:21:00;;;;;;;57.80;38.33;;;102.40;2227.20;;;;;;5020871;28;20111;-89
2022/01/08 03:23:34;;;;;;;50.13;35.47;;;77.70;2227.20;;;;;;5020781;28;20529;-87
2022/01/08 03:26:00;;;;;;;51.28;34.10;;;102.60;2227.20;;;;;;5020905;28;20028;-87
2022/01/08 03:28:26;;;;;;;49.70;31.45;;;77.70;2227.20;;;;;;5037236;28;20013;-88
2022/01/08 03:30:52;;;;;;;43.42;31.17;;;77.60;2227.20;;;;;;5037360;28;20112;-92
2022/01/08 03:33:17;;;;;;;50.22;34.15;;;77.60;2227.20;;;;;;5020506;28;20549;-88
2022/01/08 03:35:43;;;;;;;50.38;32.00;;;77.70;2227.20;;;;;;5037210;28;20044;-89
2022/01/08 03:38:09;;;;;;;49.63;34.50;;;102.40;2227.20;;;;;;5037173;28;20462;-89
2022/01/08 03:40:35;;;;;;;55.20;33.97;;;102.40;2227.20;;;;;;5037068;28;20369;-88
2022/01/08 03:43:01;;;;;;;57.10;36.08;;;102.50;2227.20;;;;;;5037117;28;20424;-88
2022/01/08 03:45:26;;;;;;;46.70;31.15;;;102.50;2227.20;;;;;;5037055;28;20036;-88
2022/01/08 03:48:05;;;;;;;51.88;34.70;;;102.50;2227.20;;;;;;5036926;28;20449;-88
2022/01/08 03:50:32;;;;;;;58.53;35.85;;;102.40;2227.20;;;;;;5037084;28;20052;-88
2022/01/08 03:52:57;;;;;;;49.28;32.45;;;102.50;2227.20;;;;;;5020412;28;20029;-88
2022/01/08 03:55:23;;;;;;;44.25;31.05;;;77.70;2227.20;;;;;;5036814;28;20025;-87
2022/01/08 03:57:49;;;;;;;54.72;35.38;;;77.70;2227.20;;;;;;5020063;28;20028;-88
2022/01/08 04:00:15;;;;;;;52.70;34.95;;;77.70;2227.20;;;;;;5036812;28;20112;-87
2022/01/08 04:02:41;;;;;;;51.40;35.38;;;77.60;2227.20;;;;;;5036336;28;20093;-88
2022/01/08 04:05:07;;;;;;;52.25;33.10;;;77.60;2227.20;;;;;;5036715;28;20116;-87
2022/01/08 04:07:33;;;;;;;45.47;30.45;;;77.60;2227.20;;;;;;5019967;28;20024;-88
2022/01/08 04:09:59;;;;;;;48.25;32.00;;;77.60;2227.20;;;;;;5036148;28;20045;-89
2022/01/08 04:12:35;;;;;;;60.90;42.95;;;77.70;2227.20;;;;;;5036473;28;20079;-89
2022/01/08 04:15:08;;;;;;;62.72;42.42;;;102.40;2227.20;;;;;;5036438;28;20026;-88
2022/01/08 04:17:35;;;;;;;56.78;38.00;;;102.50;2227.20;;;;;;5020035;28;20026;-87
2022/01/08 04:20:01;;;;;;;58.13;37.85;;;102.50;2227.20;;;;;;5019744;28;20536;-88
2022/01/08 04:22:28;;;;;;;62.13;38.85;;;102.50;2227.20;;;;;;5036116;28;20053;-88
2022/01/08 04:24:55;;;;;;;67.13;44.03;;;102.60;2227.20;;;;;;5036073;28;20531;-89
2022/01/08 04:27:20;;;;;;;103.30;60.70;;;102.60;2227.20;;;;;;5035480;28;20022;-89
2022/01/08 04:29:46;;;;;;;110.80;67.15;;;102.60;2227.20;;;;;;5035908;28;20079;-88
2022/01/08 04:32:12;;;;;;;71.40;46.08;;;102.70;2227.20;;;;;;5036049;28;20453;-87
2022/01/08 04:34:38;;;;;;;73.10;45.00;;;102.70;2227.20;;;;;;5035979;28;20039;-91
2022/01/08 04:37:04;;;;;;;70.60;43.42;;;102.70;2227.20;;;;;;5035979;28;20026;-91
2022/01/08 04:39:29;;;;;;;67.63;42.45;;;102.70;2227.20;;;;;;5036032;28;20026;-89
2022/01/08 04:41:55;;;;;;;69.97;45.38;;;102.80;2227.20;;;;;;5036143;28;20372;-92
2022/01/08 04:44:21;;;;;;;75.25;50.85;;;102.70;2227.20;;;;;;5035848;28;20041;-89
2022/01/08 04:46:47;;;;;;;69.70;45.78;;;102.70;2227.20;;;;;;5019491;28;20021;-88
2022/01/08 04:49:13;;;;;;;80.90;48.75;;;102.70;2227.20;;;;;;5036061;28;20086;-88
2022/01/08 04:51:39;;;;;;;79.75;50.97;;;102.70;2227.20;;;;;;5035761;28;20494;-87
2022/01/08 04:54:05;;;;;;;95.43;59.70;;;102.80;2227.20;;;;;;5036023;28;20123;-89
2022/01/08 04:56:30;;;;;;;86.63;57.10;;;102.80;2227.20;;;;;;5035818;28;20346;-90
2022/01/08 04:58:56;;;;;;;81.13;52.53;;;102.80;2227.20;;;;;;5035585;28;20032;-90
2022/01/08 05:01:22;;;;;;;77.70;51.72;;;102.70;2227.20;;;;;;5035665;28;20028;-89
2022/01/08 05:03:48;;;;;;;73.38;48.03;;;102.70;2227.20;;;;;;5035391;28;20033;-88
2022/01/08 05:06:14;;;;;;;65.28;43.50;;;102.60;2227.20;;;;;;5035482;28;20108;-89
2022/01/08 05:08:40;;;;;;;67.57;45.92;;;102.60;2227.20;;;;;;5035042;28;20073;-87
2022/01/08 05:11:06;;;;;;;64.90;42.25;;;102.70;2227.20;;;;;;5018786;28;20034;-88
2022/01/08 05:13:31;;;;;;;64.70;41.10;;;102.60;2227.20;;;;;;5035221;28;20369;-87
2022/01/08 05:15:58;;;;;;;59.42;37.85;;;102.50;2227.20;;;;;;5035318;28;20045;-88
2022/01/08 05:18:25;;;;;;;48.75;34.95;;;102.40;2227.20;;;;;;5019887;28;20021;-87
2022/01/08 05:21:05;;;;;;;51.28;33.78;;;102.40;2227.20;;;;;;5036347;28;20021;-87
2022/01/08 05:23:31;;;;;;;49.25;32.50;;;102.40;2227.20;;;;;;5037160;28;20036;-90
2022/01/08 05:25:57;;;;;;;52.70;36.00;;;102.40;2227.20;;;;;;5035475;28;20369;-90
2022/01/08 05:28:23;;;;;;;52.45;35.75;;;77.70;2227.20;;;;;;5035095;28;20167;-90
2022/01/08 05:30:48;;;;;;;53.60;36.08;;;77.70;2227.20;;;;;;5035081;28;20072;-89
2022/01/08 05:33:14;;;;;;;53.58;38.20;;;77.70;2227.20;;;;;;5035501;28;20021;-90
2022/01/08 05:35:40;;;;;;;51.45;35.95;;;77.60;2227.20;;;;;;5034851;28;20527;-89
2022/01/08 05:38:06;;;;;;;56.88;38.08;;;77.50;2227.20;;;;;;5034950;28;20060;-87
2022/01/08 05:40:32;;;;;;;64.43;40.13;;;77.50;2227.20;;;;;;5034873;28;20032;-88
2022/01/08 05:42:58;;;;;;;78.10;47.17;;;77.60;2227.20;;;;;;5018088;28;20093;-89
2022/01/08 05:45:24;;;;;;;60.30;37.42;;;77.60;2227.20;;;;;;5034795;28;20030;-91
2022/01/08 05:47:49;;;;;;;50.97;36.55;;;77.60;2227.20;;;;;;5034976;28;20048;-90
2022/01/08 05:50:15;;;;;;;53.35;35.17;;;77.50;2227.20;;;;;;5035509;28;20025;-89
2022/01/08 05:52:41;;;;;;;56.03;36.65;;;77.60;2227.20;;;;;;5034587;28;20072;-89
2022/01/08 05:55:07;;;;;;;51.70;34.40;;;77.70;2227.20;;;;;;5034625;28;20018;-91
2022/01/08 05:57:33;;;;;;;47.67;32.78;;;77.70;2227.20;;;;;;5017460;28;20087;-90
2022/01/08 06:00:01;;;;;;;46.10;32.30;;;77.70;2227.20;;;;;;5034564;28;20475;-91
2022/01/08 06:02:27;;;;;;;47.65;32.72;;;77.70;2227.20;;;;;;5017880;28;20051;-90
2022/01/08 06:04:52;;;;;;;43.85;32.30;;;102.40;2227.20;;;;;;5034486;28;20116;-88
2022/01/08 06:07:18;;;;;;;47.45;34.15;;;102.40;2227.20;;;;;;5034210;28;20445;-91
2022/01/08 06:09:44;;;;;;;49.25;33.47;;;102.40;2227.20;;;;;;5033915;28;20049;-90
2022/01/08 06:12:10;;;;;;;53.42;35.17;;;102.40;2227.20;;;;;;5034139;28;20024;-89
2022/01/08 06:14:36;;;;;;;45.97;33.90;;;102.40;2227.20;;;;;;5017654;28;20036;-89
2022/01/08 06:17:02;;;;;;;53.90;38.17;;;102.40;2227.20;;;;;;5017472;28;20017;-89
2022/01/08 06:19:27;;;;;;;55.00;38.45;;;102.40;2227.20;;;;;;5017487;28;20108;-89
2022/01/08 06:21:53;;;;;;;66.22;42.40;;;102.40;2227.20;;;;;;5033942;28;20022;-88
2022/01/08 06:24:19;;;;;;;58.83;41.78;;;102.50;2227.20;;;;;;5033945;28;20052;-90
2022/01/08 06:26:45;;;;;;;58.28;41.72;;;102.40;2227.20;;;;;;5033874;28;20032;-89
2022/01/08 06:29:11;;;;;;;62.72;43.47;;;102.40;2227.20;;;;;;5033936;28;20075;-88
2022/01/08 06:31:37;;;;;;;62.28;42.13;;;102.40;2227.20;;;;;;5033817;28;20018;-88
2022/01/08 06:34:03;;;;;;;59.80;40.20;;;77.70;2227.20;;;;;;5033992;28;20449;-88
2022/01/08 06:36:29;;;;;;;69.80;47.72;;;77.70;2227.20;;;;;;5033711;28;20029;-88
2022/01/08 06:38:55;;;;;;;63.15;44.53;;;77.70;2227.20;;;;;;5033994;28;20198;-89
2022/01/08 06:41:21;;;;;;;54.53;37.42;;;77.70;2227.20;;;;;;5033850;28;20089;-89
2022/01/08 06:43:48;;;;;;;57.53;40.42;;;77.60;2227.20;;;;;;5033868;28;20475;-89
2022/01/08 06:46:13;;;;;;;65.47;45.55;;;77.30;2227.20;;;;;;5017727;28;20048;-88
2022/01/08 06:48:41;;;;;;;54.40;38.85;;;77.70;2227.20;;;;;;5017060;28;20465;-88
2022/01/08 06:51:07;;;;;;;61.92;40.97;;;77.60;2227.20;;;;;;5033229;28;20032;-89
2022/01/08 06:53:33;;;;;;;55.17;38.75;;;77.70;2227.20;;;;;;5017344;28;20025;-90
2022/01/08 06:55:59;;;;;;;57.90;41.80;;;102.40;2227.20;;;;;;5033602;28;20089;-89
2022/01/08 06:58:26;;;;;;;62.75;43.55;;;102.50;2227.20;;;;;;5016898;28;20052;-88
2022/01/08 07:00:52;;;;;;;46.45;34.00;;;102.50;2227.20;;;;;;5033572;28;20025;-88
2022/01/08 07:03:18;;;;;;;50.05;34.50;;;103.10;2227.20;;;;;;5017062;28;20045;-88
2022/01/08 07:05:44;;;;;;;53.13;35.78;;;102.60;2227.20;;;;;;5017003;28;20476;-92
2022/01/08 07:08:10;;;;;;;57.05;39.03;;;102.60;2227.20;;;;;;5033500;28;20092;-89
2022/01/08 07:10:37;;;;;;;58.42;42.25;;;103.00;2227.20;;;;;;5034158;28;20465;-87
2022/01/08 07:13:03;;;;;;;60.92;42.80;;;102.60;2227.20;;;;;;5017489;28;20074;-88
2022/01/08 07:15:29;;;;;;;65.72;44.95;;;102.60;2227.20;;;;;;5035177;28;20076;-87
2022/01/08 07:17:55;;;;;;;76.25;53.45;;;102.60;2227.20;;;;;;5045704;28;20044;-88
2022/01/08 07:20:20;;;;;;;80.68;53.47;;;102.70;2227.20;;;;;;5034370;28;20021;-91
2022/01/08 07:22:46;;;;;;;81.72;54.38;;;102.70;2227.20;;;;;;5034170;28;20446;-88
2022/01/08 07:25:12;;;;;;;82.43;57.13;;;102.70;2227.20;;;;;;5033375;28;20504;-89
2022/01/08 07:27:38;;;;;;;76.70;54.28;;;102.70;2227.20;;;;;;5033391;28;20136;-87
2022/01/08 07:30:06;;;;;;;82.63;54.88;;;102.70;2227.20;;;;;;5016746;28;20429;-90
2022/01/08 07:32:32;;;;;;;77.22;53.40;;;102.70;2227.20;;;;;;5016729;28;20025;-89
2022/01/08 07:34:58;;;;;;;79.20;56.30;;;102.70;2227.20;;;;;;5033018;28;20067;-90
2022/01/08 07:37:24;;;;;;;59.13;40.63;;;102.60;2227.20;;;;;;5016579;28;20033;-91
2022/01/08 07:39:50;;;;;;;58.92;39.67;;;102.60;2227.20;;;;;;5033302;28;20515;-90
2022/01/08 07:42:16;;;;;;;63.17;43.15;;;102.50;2227.20;;;;;;5033251;28;20021;-89
2022/01/08 07:44:42;;;;;;;66.90;43.05;;;102.60;2227.20;;;;;;5016617;28;20029;-90
2022/01/08 07:47:07;;;;;;;62.42;42.45;;;102.60;2227.20;;;;;;5034391;28;20013;-89
2022/01/08 07:49:34;;;;;;;66.45;43.75;;;102.60;2227.20;;;;;;5033360;28;20053;-88
2022/01/08 07:52:00;;;;;;;75.72;52.08;;;102.80;2227.20;;;;;;5016767;28;20021;-88
2022/01/08 07:54:26;;;;;;;108.25;69.25;;;102.70;2227.20;;;;;;5032948;28;20083;-89
2022/01/08 07:56:51;;;;;;;327.98;187.05;;;102.50;2227.20;;;;;;5032983;28;20028;-87
2022/01/08 07:59:17;;;;;;;133.02;85.22;;;102.50;2227.20;;;;;;5032899;28;20071;-90
2022/01/08 08:01:43;;;;;;;236.82;136.15;;;102.50;2227.20;;;;;;5033016;28;20476;-90
2022/01/08 08:04:09;;;;;;;240.65;137.65;;;102.50;2227.20;;;;;;5035537;28;20032;-89
2022/01/08 08:06:43;;;;;;;160.50;95.85;;;102.50;2227.20;;;;;;5019811;28;20022;-89
2022/01/08 08:09:09;;;;;;;214.43;129.57;;;102.60;2227.20;;;;;;5019972;28;20385;-92
2022/01/08 08:11:34;;;;;;;123.65;79.93;;;102.50;2227.20;;;;;;5036476;28;20062;-88
2022/01/08 08:14:00;;;;;;;142.38;97.65;;;102.50;2227.20;;;;;;5036529;28;20028;-91
2022/01/08 08:16:26;;;;;;;119.40;79.13;;;102.60;2227.20;;;;;;5037183;28;20024;-82
2022/01/08 08:18:52;;;;;;;115.93;73.60;;;102.70;2227.20;;;;;;5036720;28;20027;-88
2022/01/08 08:21:17;;;;;;;158.82;100.28;;;102.70;2227.20;;;;;;5036321;28;20453;-87
2022/01/08 08:23:43;;;;;;;205.77;130.50;;;102.80;2227.20;;;;;;5035825;28;20029;-87
2022/01/08 08:26:09;;;;;;;162.32;108.28;;;102.80;2227.20;;;;;;5019349;28;20017;-87
2022/01/08 08:28:35;;;;;;;153.75;99.72;;;102.90;2227.20;;;;;;5035574;28;20021;-88
2022/01/08 08:31:01;;;;;;;182.80;117.88;;;102.90;2227.20;;;;;;5035964;28;20099;-88
2022/01/08 08:33:31;;;;;;;192.13;118.53;;;103.00;2227.20;;;;;;5035822;28;20017;-89
2022/01/08 08:35:57;;;;;;;184.27;122.70;;;103.10;2227.20;;;;;;5018941;28;20033;-86
2022/01/08 08:38:23;;;;;;;184.02;121.00;;;103.10;2227.20;;;;;;5019537;28;20461;-88
2022/01/08 08:40:51;;;;;;;196.13;127.50;;;103.10;2227.20;;;;;;5018760;28;20124;-86
2022/01/08 08:43:19;;;;;;;195.00;130.68;;;103.20;2227.20;;;;;;5034949;28;20021;-84
2022/01/08 08:45:45;;;;;;;162.93;114.15;;;103.30;2227.20;;;;;;5019084;28;20411;-84
2022/01/08 08:48:11;;;;;;;140.90;102.60;;;103.30;2227.20;;;;;;5035060;28;20022;-85
2022/01/08 08:50:37;;;;;;;123.97;87.65;;;128.00;2252.80;;;;;;5036398;28;20021;-85
2022/01/08 08:53:03;;;;;;;185.45;122.80;;;128.00;2252.80;;;;;;5018379;28;20028;-84
2022/01/08 08:55:28;;;;;;;220.13;146.52;;;103.30;2227.20;;;;;;5034930;28;20030;-84
2022/01/08 08:57:54;;;;;;;197.43;131.82;;;103.20;2227.20;;;;;;5035237;28;20112;-85
2022/01/08 09:00:20;;;;;;;208.43;138.25;;;103.30;2227.20;;;;;;5035017;28;20021;-84
2022/01/08 09:02:46;;;;;;;189.40;123.38;;;103.20;2227.20;;;;;;5035066;28;20084;-86
2022/01/08 09:05:13;;;;;;;173.05;118.00;;;103.30;2227.20;;;;;;5034880;28;20033;-78
2022/01/08 09:07:39;;;;;;;165.38;114.57;;;128.00;2252.80;;;;;;5034844;28;20026;-82
2022/01/08 09:10:07;;;;;;;140.68;99.63;;;128.00;2252.80;;;;;;5017316;28;20068;-83
2022/01/08 09:12:33;;;;;;;124.70;87.65;;;128.00;2252.80;;;;;;5017563;28;20159;-84
2022/01/08 09:14:59;;;;;;;125.90;89.82;;;103.30;2227.20;;;;;;5017074;28;20028;-83
2022/01/08 09:17:25;;;;;;;115.78;83.20;;;103.30;2227.20;;;;;;5034418;28;20025;-82
2022/01/08 09:19:52;;;;;;;127.47;82.75;;;103.30;2227.20;;;;;;5035672;28;20100;-78
2022/01/08 09:22:18;;;;;;;119.95;75.80;;;128.00;2252.80;;;;;;5017652;28;20028;-84
2022/01/08 09:24:45;;;;;;;124.47;79.13;;;128.10;2252.80;;;;;;5017262;28;20029;-83
2022/01/08 09:27:11;;;;;;;109.75;77.60;;;128.30;2252.80;;;;;;5018035;28;20072;-83
2022/01/08 09:29:37;;;;;;;110.32;77.28;;;128.40;2252.80;;;;;;5017846;28;20018;-81
2022/01/08 09:32:08;;;;;;;116.28;82.10;;;128.30;2252.80;;;;;;5034311;28;20441;-81
2022/01/08 09:34:36;;;;;;;115.25;84.15;;;128.40;2252.80;;;;;;5017576;28;20026;-80
2022/01/08 09:37:03;;;;;;;87.78;58.28;;;128.50;2252.80;;;;;;5017524;28;20048;-80
2022/01/08 09:39:29;;;;;;;75.97;43.22;;;128.60;2252.80;;;;;;5017495;28;20044;-80
2022/01/08 09:41:55;;;;;;;74.65;48.90;;;128.60;2252.80;;;;;;5017635;28;20022;-81
2022/01/08 09:44:21;;;;;;;94.63;60.67;;;128.60;2252.80;;;;;;5034021;28;20032;-81
2022/01/08 09:46:47;;;;;;;103.97;66.43;;;128.80;2252.80;;;;;;5017511;28;20465;-79
2022/01/08 09:49:13;;;;;;;61.05;42.75;;;128.90;2252.80;;;;;;5017505;28;20053;-81
2022/01/08 09:51:39;;;;;;;63.28;41.53;;;128.80;2252.80;;;;;;5016779;28;20025;-80
2022/01/08 09:54:05;;;;;;;91.50;54.60;;;128.80;2252.80;;;;;;5033047;28;20025;-82
2022/01/08 09:56:32;;;;;;;65.60;45.38;;;153.80;2252.80;;;;;;5016036;28;20033;-84
2022/01/08 09:59:00;;;;;;;89.70;59.08;;;153.60;2252.80;;;;;;5015453;28;20026;-79
2022/01/08 10:01:31;;;;;;;96.25;64.82;;;153.70;2252.80;;;;;;5016583;28;20025;-83
2022/01/08 10:03:59;;;;;;;77.20;55.42;;;128.90;2252.80;;;;;;5017016;28;20036;-81
2022/01/08 10:06:31;;;;;;;95.43;69.00;;;153.60;2252.80;;;;;;5004994;28;20053;-81
2022/01/08 10:08:58;;;;;;;82.03;60.22;;;153.70;2252.80;;;;;;5016531;28;20041;-83
2022/01/08 10:11:25;;;;;;;74.30;51.20;;;153.80;2252.80;;;;;;5017160;28;20025;-82
2022/01/08 10:14:02;;;;;;;72.82;49.20;;;153.90;2252.80;;;;;;5017230;28;20022;-84
2022/01/08 10:19:31;;;;;;;53.33;37.40;;;128.90;2252.80;;;;;;5034618;28;20380;-83
2022/01/08 10:21:58;;;;;;;51.47;36.72;;;153.70;2252.80;;;;;;5049650;28;20014;-77
2022/01/08 10:24:26;;;;;;;50.50;38.53;;;153.60;2252.80;;;;;;5025132;28;20037;-84
2022/01/08 10:27:02;;;;;;;48.80;35.58;;;128.90;2252.80;;;;;;5018756;28;20523;-84
2022/01/08 10:29:28;;;;;;;55.47;38.05;;;128.90;2252.80;;;;;;5017045;28;20025;-84
2022/01/08 10:31:56;;;;;;;66.03;53.13;;;153.60;2252.80;;;;;;5016554;28;20032;-84
2022/01/08 10:34:25;;;;;;;52.33;36.58;;;128.90;2252.80;;;;;;5016321;28;20033;-83
2022/01/08 10:37:01;;;;;;;55.00;38.75;;;128.90;2252.80;;;;;;5016545;28;20033;-86
2022/01/08 10:39:40;;;;;;;88.10;64.28;;;128.90;2252.80;;;;;;5017048;28;20032;-85
2022/01/08 10:42:15;;;;;;;76.68;52.20;;;153.70;2252.80;;;;;;5016100;28;20032;-84
2022/01/08 10:44:43;;;;;;;89.97;61.70;;;153.70;2252.80;;;;;;5015835;28;20029;-85
2022/01/08 10:47:16;;;;;;;84.43;58.05;;;153.80;2252.80;;;;;;5011415;28;20064;-83
2022/01/08 10:49:45;;;;;;;62.15;43.55;;;153.90;2252.80;;;;;;4997069;28;20128;-83
2022/01/08 10:52:16;;;;;;;58.35;42.63;;;153.80;2252.80;;;;;;4997089;28;20449;-84
2022/01/08 10:54:45;;;;;;;60.00;43.80;;;153.70;2252.80;;;;;;5014273;28;20030;-83
2022/01/08 10:57:14;;;;;;;69.72;45.78;;;153.60;2252.80;;;;;;5015783;28;20029;-83
2022/01/08 10:59:42;;;;;;;55.17;39.22;;;153.70;2252.80;;;;;;5034347;28;20025;-85
2022/01/08 11:02:13;;;;;;;56.03;38.97;;;153.80;2252.80;;;;;;5015703;28;20028;-84
2022/01/08 11:04:48;;;;;;;41.92;31.20;;;153.70;2252.80;;;;;;5015648;28;20057;-83
2022/01/08 11:07:25;;;;;;;59.45;43.50;;;153.60;2252.80;;;;;;5014886;28;20484;-81
2022/01/08 11:09:56;;;;;;;77.57;49.97;;;128.90;1868.80;;;;;;5033169;28;20113;-83
2022/01/08 11:12:37;;;;;;;47.92;34.38;;;153.60;2252.80;;;;;;5003996;28;20053;-83
2022/01/08 11:15:48;;;;;;;45.92;33.97;;;153.60;2252.80;;;;;;5015300;28;20056;-82
2022/01/08 11:18:17;;;;;;;74.00;58.55;;;153.60;2252.80;;;;;;5010912;28;20022;-79
2022/01/08 11:20:44;;;;;;;67.95;47.92;;;153.70;2252.80;;;;;;5004895;28;20026;-82
2022/01/08 11:23:12;;;;;;;65.53;46.80;;;153.70;2252.80;;;;;;5019568;28;20053;-82
2022/01/08 11:25:38;;;;;;;56.85;41.58;;;154.30;1996.80;;;;;;4996644;28;20096;-83
2022/01/08 11:28:11;;;;;;;69.53;38.53;;;153.90;2252.80;;;;;;5014223;28;20022;-82
2022/01/08 11:30:49;;;;;;;53.53;38.10;;;153.80;2252.80;;;;;;4996296;28;20018;-84
2022/01/08 11:33:25;;;;;;;59.28;40.20;;;153.80;2252.80;;;;;;5006287;28;20026;-83
2022/01/08 11:35:52;;;;;;;65.03;44.90;;;153.90;2252.80;;;;;;5020875;28;20018;-85
2022/01/08 11:38:20;;;;;;;67.78;47.90;;;154.00;2252.80;;;;;;5031537;28;20056;-82
2022/01/08 11:40:49;;;;;;;63.88;46.63;;;153.90;2252.80;;;;;;5019679;28;20488;-83
2022/01/08 11:43:18;;;;;;;72.65;49.53;;;154.10;1894.40;;;;;;5022712;28;20116;-87
2022/01/08 11:45:47;;;;;;;87.45;63.75;;;154.00;2252.80;;;;;;5000271;28;20113;-85
2022/01/08 11:48:14;;;;;;;82.30;59.47;;;154.00;2252.80;;;;;;5000368;28;20034;-89
2022/01/08 11:50:48;;;;;;;74.45;53.42;;;154.10;2252.80;;;;;;5000053;28;20026;-84
2022/01/08 11:53:42;;;;;;;68.75;50.42;;;154.10;2252.80;;;;;;5012407;28;20025;-85
2022/01/08 11:56:31;;;;;;;71.00;50.10;;;154.10;2252.80;;;;;;5008075;28;20076;-80
2022/01/08 11:59:15;;;;;;;60.47;44.28;;;154.20;2252.80;;;;;;5001859;28;20022;-85
2022/01/08 12:02:21;;;;;;;51.75;37.88;;;154.30;2252.80;;;;;;4999955;28;20454;-86
2022/01/08 12:04:52;;;;;;;47.80;35.70;;;154.10;2252.80;;;;;;4940020;29;20070;-84
2022/01/08 12:07:38;;;;;;;47.95;36.15;;;154.00;2022.40;;;;;;4939846;29;20023;-87
2022/01/08 12:10:24;;;;;;;60.72;42.38;;;154.00;2252.80;;;;;;4983330;28;20078;-88
2022/01/08 12:12:59;;;;;;;59.60;42.67;;;154.00;2252.80;;;;;;5005545;28;20025;-84
2022/01/08 12:15:40;;;;;;;58.17;42.53;;;154.10;2252.80;;;;;;5019362;28;20148;-83
2022/01/08 12:18:08;;;;;;;51.10;38.13;;;154.20;2252.80;;;;;;5036541;28;20064;-83
2022/01/08 12:20:48;;;;;;;88.57;69.45;;;153.90;2252.80;;;;;;5018898;28;20025;-82
2022/01/08 12:23:23;;;;;;;96.72;70.78;;;153.90;2252.80;;;;;;5012646;28;20022;-80